22NY weather

Troop A Headquarters Heliport
Batavia, New York, United States

Public forecast

Using degrees Fahrenheit for public forecast. Weather courtesy of forecast.io.

Closest aviation weather report (METAR) to Troop A Headquarters Heliport

Closest report is Greater Rochester International Airport, 23.1 nm (42.8 km) ENE. Retrieved 2020/02/20 03:54 UTC (32 minutes ago):

KROC 200354Z 29011KT 10SM FEW035 BKN045 OVC060 M04/M11 A3043 RMK AO2 SLP314 T10441106

Closest aviation forecast (TAF) to Troop A Headquarters Heliport

Closest forecast is Greater Rochester International Airport, 23.1 nm (42.8 km) ENE. Retrieved 2020-02-20 00:36 UTC (4 hours ago):

TAF KROC 192332Z 2000/2024 30004KT P6SM VCSH BKN050 FM200300 28008KT P6SM VCSH BKN040 FM201000 27008KT 6SM -SN SCT025 BKN035 TEMPO 2011/2013 3SM -SN BKN025 FM201300 30008KT 2SM -SN BR OVC025 FM201800 32010KT P6SM VCSH BKN025